createdAt,value
2022-11-17T00:02:01.651Z,98391.41
2022-11-17T00:05:06.251Z,98402.97
2022-11-17T00:08:09.131Z,98397.94
2022-11-17T00:11:12.320Z,98399.09
2022-11-17T00:14:33.318Z,98405.66
2022-11-17T00:17:36.476Z,98403.72
2022-11-17T00:20:58.339Z,98406.06
2022-11-17T00:24:01.868Z,98399.87
2022-11-17T00:27:04.760Z,98391.00
2022-11-17T00:30:08.285Z,98396.78
2022-11-17T00:33:31.451Z,98386.41
2022-11-17T00:36:37.831Z,98381.00
2022-11-17T00:39:40.990Z,98376.00
2022-11-17T00:42:44.492Z,98384.06
2022-11-17T00:45:47.285Z,98384.87
2022-11-17T00:48:50.519Z,98385.97
2022-11-17T00:51:57.848Z,98375.22
2022-11-17T00:55:01.001Z,98385.59
2022-11-17T00:58:03.913Z,98377.09
2022-11-17T01:01:07.171Z,98382.91
2022-11-17T01:04:10.042Z,98371.72
2022-11-17T01:07:13.161Z,98362.87
2022-11-17T01:10:16.142Z,98365.19
2022-11-17T01:13:19.290Z,98357.50
2022-11-17T01:16:22.827Z,98353.63
2022-11-17T01:19:26.055Z,98360.56
2022-11-17T01:22:28.953Z,98360.22
2022-11-17T01:25:32.624Z,98366.72
2022-11-17T01:28:36.508Z,98370.94
2022-11-17T01:31:43.451Z,98360.19
2022-11-17T01:34:47.393Z,98371.34
2022-11-17T01:37:50.515Z,98369.78
2022-11-17T01:40:53.429Z,98354.75
2022-11-17T01:44:38.002Z,98359.78
2022-11-17T01:47:47.559Z,98354.37
2022-11-17T01:50:52.256Z,98352.44
2022-11-17T01:53:55.147Z,98357.06
2022-11-17T01:57:03.641Z,98380.56
2022-11-17T02:00:09.274Z,98392.87
2022-11-17T02:03:13.226Z,98397.47
2022-11-17T02:06:21.467Z,98388.62
2022-11-17T02:09:26.201Z,98374.78
2022-11-17T02:12:31.978Z,98372.44
2022-11-17T02:15:35.103Z,98371.72
2022-11-17T02:18:39.638Z,98375.50
2022-11-17T02:22:05.703Z,98368.94
2022-11-17T02:25:33.979Z,98367.41
2022-11-17T02:28:47.815Z,98368.22
2022-11-17T02:32:00.321Z,98353.97
2022-11-17T02:35:10.267Z,98344.72
2022-11-17T02:38:39.154Z,98343.97
2022-11-17T02:41:51.404Z,98335.12
2022-11-17T02:44:58.038Z,98338.19
2022-11-17T02:48:06.574Z,98325.50
2022-11-17T02:51:13.552Z,98327.03
2022-11-17T02:54:17.871Z,98320.12
2022-11-17T02:57:34.907Z,98330.16
2022-11-17T03:00:44.496Z,98320.12
2022-11-17T03:04:09.181Z,98313.19
2022-11-17T03:07:58.687Z,98315.50
2022-11-17T03:11:06.532Z,98305.09
2022-11-17T03:14:31.919Z,98308.97
2022-11-17T03:17:57.143Z,98309.31
2022-11-17T03:21:14.948Z,98303.16
2022-11-17T03:24:33.824Z,98308.16
2022-11-17T03:27:44.435Z,98300.47
2022-11-17T03:30:48.331Z,98313.97
2022-11-17T03:33:52.659Z,98326.28
2022-11-17T03:37:00.161Z,98325.88
2022-11-17T03:40:08.133Z,98340.53
2022-11-17T03:43:13.356Z,98340.53
2022-11-17T03:46:17.593Z,98342.06
2022-11-17T03:49:29.507Z,98347.81
2022-11-17T03:52:34.153Z,98346.22
2022-11-17T03:56:01.674Z,98351.25
2022-11-17T03:59:53.365Z,98352.78
2022-11-17T04:02:58.974Z,98354.72
2022-11-17T04:06:02.283Z,98351.66
2022-11-17T04:09:05.172Z,98337.41
2022-11-17T04:12:28.502Z,98343.16
2022-11-17T04:15:49.959Z,98338.53
2022-11-17T04:18:58.558Z,98333.91
2022-11-17T04:22:01.938Z,98342.31
2022-11-17T04:25:06.013Z,98337.34
2022-11-17T04:28:27.564Z,98345.78
2022-11-17T04:31:31.760Z,98344.66
2022-11-17T04:34:34.671Z,98338.06
2022-11-17T04:37:38.540Z,98347.00
2022-11-17T04:41:01.939Z,98353.94
2022-11-17T04:44:07.746Z,98344.34
2022-11-17T04:47:10.616Z,98350.13
2022-11-17T04:50:15.210Z,98344.72
2022-11-17T04:53:18.047Z,98355.50
2022-11-17T04:56:21.969Z,98366.31
2022-11-17T04:59:25.010Z,98368.22
2022-11-17T05:02:28.356Z,98368.94
2022-11-17T05:05:31.243Z,98358.16
2022-11-17T05:08:36.740Z,98363.97
2022-11-17T05:11:58.503Z,98363.97
2022-11-17T05:15:01.557Z,98357.03
2022-11-17T05:18:05.403Z,98358.97
2022-11-17T05:21:10.250Z,98355.09
2022-11-17T05:24:14.525Z,98353.22
2022-11-17T05:27:17.719Z,98351.69
2022-11-17T05:30:20.658Z,98354.75
2022-11-17T05:33:23.877Z,98367.06
2022-11-17T05:36:27.468Z,98363.19
2022-11-17T05:39:30.603Z,98365.13
2022-11-17T05:42:34.221Z,98362.06
2022-11-17T05:45:37.374Z,98371.31
2022-11-17T05:48:46.371Z,98369.37
2022-11-17T05:51:53.119Z,98367.47
2022-11-17T05:54:56.195Z,98378.28
2022-11-17T05:58:02.651Z,98389.41
2022-11-17T06:01:05.653Z,98382.50
2022-11-17T06:04:09.071Z,98388.25
2022-11-17T06:07:12.028Z,98393.25
2022-11-17T06:10:15.296Z,98393.19
2022-11-17T06:13:20.279Z,98388.59
2022-11-17T06:16:23.938Z,98397.41
2022-11-17T06:19:40.251Z,98393.59
2022-11-17T06:22:48.181Z,98401.69
2022-11-17T06:25:51.460Z,98408.66
2022-11-17T06:28:55.030Z,98414.41
2022-11-17T06:31:58.672Z,98415.16
2022-11-17T06:35:04.713Z,98421.72
2022-11-17T06:38:07.960Z,98423.56
2022-11-17T06:41:12.173Z,98415.47
2022-11-17T06:44:16.335Z,98424.69
2022-11-17T06:47:19.815Z,98421.31
2022-11-17T06:50:23.329Z,98427.06
2022-11-17T06:53:26.834Z,98432.84
2022-11-17T06:56:29.904Z,98434.78
2022-11-17T06:59:33.077Z,98424.72
2022-11-17T07:02:37.501Z,98424.03
2022-11-17T07:05:40.779Z,98422.56
2022-11-17T07:08:45.505Z,98424.06
2022-11-17T07:11:48.675Z,98430.22
2022-11-17T07:14:51.583Z,98422.13
2022-11-17T07:17:55.187Z,98412.47
2022-11-17T07:21:03.087Z,98410.19
2022-11-17T07:24:06.487Z,98416.34
2022-11-17T07:27:09.344Z,98410.19
2022-11-17T07:30:13.427Z,98408.69
2022-11-17T07:33:16.309Z,98409.81
2022-11-17T07:36:19.449Z,98401.78
2022-11-17T07:39:22.559Z,98405.22
2022-11-17T07:42:25.695Z,98411.38
2022-11-17T07:45:31.867Z,98412.94
2022-11-17T07:48:35.932Z,98403.66
2022-11-17T07:51:39.103Z,98404.44
2022-11-17T07:54:42.265Z,98399.75
2022-11-17T07:57:45.488Z,98405.59
2022-11-17T08:00:48.636Z,98418.66
2022-11-17T08:03:51.850Z,98411.38
2022-11-17T08:06:54.779Z,98416.00
2022-11-17T08:09:57.992Z,98425.28
2022-11-17T08:13:01.519Z,98422.97
2022-11-17T08:16:05.444Z,98422.97
2022-11-17T08:19:12.087Z,98422.13
2022-11-17T08:22:15.491Z,98417.19
2022-11-17T08:25:23.003Z,98426.09
2022-11-17T08:28:26.685Z,98421.88
2022-11-17T08:31:29.738Z,98426.47
2022-11-17T08:34:33.273Z,98430.31
2022-11-17T08:37:40.685Z,98429.19
2022-11-17T08:40:46.113Z,98437.28
2022-11-17T08:43:50.943Z,98435.75
2022-11-17T08:46:55.952Z,98449.62
2022-11-17T08:49:59.030Z,98453.00
2022-11-17T08:53:02.149Z,98458.84
2022-11-17T08:56:12.268Z,98463.50
2022-11-17T08:59:15.704Z,98458.38
2022-11-17T09:02:18.728Z,98457.66
2022-11-17T09:05:22.230Z,98468.13
2022-11-17T09:11:48.219Z,98477.37
2022-11-17T09:14:51.065Z,98485.47
2022-11-17T09:17:54.270Z,98483.56
2022-11-17T09:21:08.925Z,98483.16
2022-11-17T09:24:12.159Z,98478.94
2022-11-17T09:27:15.127Z,98470.47
2022-11-17T09:30:22.251Z,98469.72
2022-11-17T09:33:25.485Z,98480.88
2022-11-17T09:36:29.868Z,98482.78
2022-11-17T09:39:32.765Z,98482.41
2022-11-17T09:42:41.142Z,98463.91
2022-11-17T09:45:46.643Z,98465.84
2022-11-17T09:48:57.894Z,98470.06
2022-11-17T09:52:05.860Z,98459.25
2022-11-17T09:55:08.937Z,98459.63
2022-11-17T09:58:19.191Z,98465.03
2022-11-17T10:01:23.374Z,98468.91
2022-11-17T10:04:29.124Z,98461.19
2022-11-17T10:07:32.374Z,98466.97
2022-11-17T10:10:40.412Z,98460.00
2022-11-17T10:13:43.260Z,98466.19
2022-11-17T10:16:52.962Z,98455.31
2022-11-17T10:19:55.799Z,98459.19
2022-11-17T10:22:59.087Z,98457.97
2022-11-17T10:26:07.123Z,98462.72
2022-11-17T10:29:14.173Z,98467.31
2022-11-17T10:32:17.043Z,98468.47
2022-11-17T10:35:34.891Z,98465.31
2022-11-17T10:38:44.602Z,98459.47
2022-11-17T10:41:50.845Z,98464.09
2022-11-17T10:44:59.665Z,98468.03
2022-11-17T10:48:29.453Z,98469.16
2022-11-17T10:51:33.621Z,98461.75
2022-11-17T10:54:37.481Z,98467.59
2022-11-17T10:57:44.658Z,98460.22
2022-11-17T11:00:54.415Z,98465.56
2022-11-17T11:03:57.668Z,98467.53
2022-11-17T11:07:21.886Z,98477.63
2022-11-17T11:10:32.427Z,98479.59
2022-11-17T11:13:53.371Z,98464.88
2022-11-17T11:16:56.320Z,98463.72
2022-11-17T11:19:59.741Z,98465.22
2022-11-17T11:23:09.903Z,98452.88
2022-11-17T11:26:20.454Z,98457.09
2022-11-17T11:29:42.673Z,98460.22
2022-11-17T11:32:53.021Z,98469.91
2022-11-17T11:36:08.099Z,98464.09
2022-11-17T11:39:30.222Z,98453.19
2022-11-17T11:42:53.143Z,98450.94
2022-11-17T11:46:03.097Z,98443.63
2022-11-17T11:49:36.471Z,98437.38
2022-11-17T11:52:44.964Z,98435.34
2022-11-17T11:55:50.072Z,98440.03
2022-11-17T11:59:02.513Z,98449.69
2022-11-17T12:02:11.522Z,98450.84
2022-11-17T12:05:26.755Z,98457.41
2022-11-17T12:08:36.585Z,98461.16
2022-11-17T12:12:00.606Z,98454.50
2022-11-17T12:15:18.826Z,98465.16
2022-11-17T12:18:22.301Z,98466.59
2022-11-17T12:21:30.314Z,98464.31
2022-11-17T12:24:39.255Z,98456.91
2022-11-17T12:27:47.175Z,98452.81
2022-11-17T12:30:53.815Z,98454.19
2022-11-17T12:34:09.714Z,98465.78
2022-11-17T12:37:15.828Z,98462.06
2022-11-17T12:40:41.639Z,98453.50
2022-11-17T12:43:44.754Z,98450.03
2022-11-17T12:46:49.422Z,98450.25
2022-11-17T12:50:09.709Z,98448.47
2022-11-17T12:53:21.095Z,98448.13
2022-11-17T12:57:08.110Z,98443.91
2022-11-17T13:00:22.543Z,98451.06
2022-11-17T13:03:48.150Z,98466.06
2022-11-17T13:07:21.948Z,98466.41
2022-11-17T13:10:31.014Z,98483.84
2022-11-17T13:13:37.206Z,98478.97
2022-11-17T13:16:49.187Z,98484.44
2022-11-17T13:20:28.264Z,98476.09
2022-11-17T13:23:33.574Z,98471.28
2022-11-17T13:26:38.337Z,98477.97
2022-11-17T13:29:41.616Z,98494.50
2022-11-17T13:32:44.667Z,98492.41
2022-11-17T13:35:47.918Z,98487.13
2022-11-17T13:38:52.497Z,98474.50
2022-11-17T13:41:56.902Z,98481.41
2022-11-17T13:45:06.270Z,98474.44
2022-11-17T13:48:38.696Z,98488.62
2022-11-17T13:51:44.391Z,98495.34
2022-11-17T13:54:47.631Z,98494.56
2022-11-17T13:58:29.241Z,98490.47
2022-11-17T14:01:33.458Z,98483.78
2022-11-17T14:04:38.190Z,98481.72
2022-11-17T14:07:43.242Z,98481.09
2022-11-17T14:10:46.494Z,98474.72
2022-11-17T14:13:51.824Z,98484.50
2022-11-17T14:16:57.712Z,98491.16
2022-11-17T14:20:20.893Z,98485.84
2022-11-17T14:23:24.236Z,98494.78
2022-11-17T14:26:27.317Z,98493.22
2022-11-17T14:29:30.663Z,98494.47
2022-11-17T14:32:35.048Z,98488.19
2022-11-17T14:35:38.401Z,98486.97
2022-11-17T14:38:41.563Z,98475.97
2022-11-17T14:41:47.098Z,98480.88
2022-11-17T14:44:51.347Z,98484.09
2022-11-17T14:47:54.451Z,98496.81
2022-11-17T14:50:59.529Z,98476.09
2022-11-17T14:54:04.355Z,98464.91
2022-11-17T14:57:07.458Z,98471.28
2022-11-17T15:00:15.838Z,98479.16
2022-11-17T15:03:21.858Z,98471.53
2022-11-17T15:06:26.788Z,98469.34
2022-11-17T15:09:38.836Z,98488.34
2022-11-17T15:12:42.011Z,98491.50
2022-11-17T15:15:44.895Z,98488.12
2022-11-17T15:18:48.959Z,98499.81
2022-11-17T15:21:51.808Z,98495.56
2022-11-17T15:24:54.979Z,98487.16
2022-11-17T15:27:57.866Z,98469.84
2022-11-17T15:31:10.329Z,98459.84
2022-11-17T15:34:18.724Z,98465.69
2022-11-17T15:37:23.203Z,98468.78
2022-11-17T15:40:26.067Z,98447.59
2022-11-17T15:43:31.039Z,98456.50
2022-11-17T15:46:33.864Z,98452.66
2022-11-17T15:49:37.100Z,98428.75
2022-11-17T15:53:02.920Z,98443.03
2022-11-17T15:56:08.118Z,98455.00
2022-11-17T15:59:11.159Z,98446.91
2022-11-17T16:02:15.056Z,98455.38
2022-11-17T16:05:18.247Z,98450.75
2022-11-17T16:08:21.076Z,98453.44
2022-11-17T16:11:25.875Z,98468.87
2022-11-17T16:14:29.783Z,98477.00
2022-11-17T16:17:32.848Z,98479.31
2022-11-17T16:20:35.846Z,98474.66
2022-11-17T16:23:43.805Z,98467.72
2022-11-17T16:26:47.685Z,98480.44
2022-11-17T16:29:50.768Z,98482.34
2022-11-17T16:32:54.090Z,98491.25
2022-11-17T16:36:04.748Z,98497.00
2022-11-17T16:39:10.922Z,98492.37
2022-11-17T16:42:14.253Z,98494.28
2022-11-17T16:45:17.092Z,98490.78
2022-11-17T16:48:20.269Z,98497.34
2022-11-17T16:51:23.348Z,98499.25
2022-11-17T16:54:26.628Z,98501.59
2022-11-17T16:57:29.861Z,98510.47
2022-11-17T17:00:35.276Z,98515.88
2022-11-17T17:03:38.291Z,98522.06
2022-11-17T17:06:42.638Z,98532.09
2022-11-17T17:09:45.408Z,98524.38
2022-11-17T17:12:48.427Z,98525.91
2022-11-17T17:15:51.518Z,98526.31
2022-11-17T17:19:00.408Z,98522.03
2022-11-17T17:22:03.968Z,98530.16
2022-11-17T17:25:09.493Z,98518.97
2022-11-17T17:28:12.432Z,98527.84
2022-11-17T17:31:21.264Z,98530.19
2022-11-17T17:34:26.283Z,98531.75
2022-11-17T17:37:33.450Z,98530.53
2022-11-17T17:40:36.808Z,98515.09
2022-11-17T17:43:40.946Z,98529.78
2022-11-17T17:46:52.070Z,98519.38
2022-11-17T17:49:56.719Z,98512.03
2022-11-17T17:52:59.940Z,98504.69
2022-11-17T17:56:11.632Z,98493.09
2022-11-17T17:59:16.334Z,98496.56
2022-11-17T18:02:21.068Z,98482.28
2022-11-17T18:05:24.458Z,98481.09
2022-11-17T18:08:28.252Z,98476.87
2022-11-17T18:11:33.466Z,98480.72
2022-11-17T18:14:36.818Z,98472.22
2022-11-17T18:17:40.826Z,98480.72
2022-11-17T18:20:44.604Z,98487.31
2022-11-17T18:23:48.359Z,98482.66
2022-11-17T18:26:51.494Z,98483.03
2022-11-17T18:29:55.099Z,98478.78
2022-11-17T18:33:02.765Z,98485.38
2022-11-17T18:36:08.644Z,98479.59
2022-11-17T18:39:12.863Z,98482.75
2022-11-17T18:42:16.926Z,98486.94
2022-11-17T18:45:19.804Z,98466.47
2022-11-17T18:48:23.351Z,98475.75
2022-11-17T18:51:29.284Z,98490.06
2022-11-17T18:54:33.073Z,98491.22
2022-11-17T18:57:39.596Z,98498.16
2022-11-17T19:00:47.816Z,98490.06
2022-11-17T19:03:54.766Z,98486.97
2022-11-17T19:07:01.016Z,98481.94
2022-11-17T19:10:03.970Z,98472.66
2022-11-17T19:13:07.442Z,98453.72
2022-11-17T19:16:27.353Z,98452.25
2022-11-17T19:19:31.080Z,98446.41
2022-11-17T19:22:35.811Z,98447.94
2022-11-17T19:25:40.765Z,98444.88
2022-11-17T19:28:44.788Z,98451.44
2022-11-17T19:31:51.840Z,98453.34
2022-11-17T19:35:01.343Z,98452.56
2022-11-17T19:38:11.227Z,98460.28
2022-11-17T19:41:17.414Z,98467.25
2022-11-17T19:44:21.925Z,98464.94
2022-11-17T19:47:25.259Z,98465.69
2022-11-17T19:50:30.834Z,98479.59
2022-11-17T19:53:34.098Z,98478.81
2022-11-17T19:56:40.070Z,98463.75
2022-11-17T19:59:43.440Z,98446.03
2022-11-17T20:02:47.161Z,98451.81
2022-11-17T20:05:50.710Z,98464.53
2022-11-17T20:08:55.243Z,98471.84
2022-11-17T20:12:06.363Z,98470.66
2022-11-17T20:15:27.012Z,98468.00
2022-11-17T20:18:33.919Z,98473.41
2022-11-17T20:21:37.239Z,98479.59
2022-11-17T20:24:40.935Z,98492.72
2022-11-17T20:27:46.164Z,98484.25
2022-11-17T20:30:50.945Z,98497.38
2022-11-17T20:34:00.605Z,98493.88
2022-11-17T20:37:04.294Z,98507.78
2022-11-17T20:40:08.843Z,98512.78
2022-11-17T20:43:13.538Z,98488.84
2022-11-17T20:46:17.064Z,98496.94
2022-11-17T20:49:21.054Z,98501.19
2022-11-17T20:52:30.128Z,98502.00
2022-11-17T20:55:34.396Z,98495.00
2022-11-17T20:58:38.383Z,98486.53
2022-11-17T21:01:43.035Z,98490.00
2022-11-17T21:04:46.352Z,98484.59
2022-11-17T21:07:49.630Z,98481.88
2022-11-17T21:11:00.045Z,98487.28
2022-11-17T21:14:05.646Z,98474.53
2022-11-17T21:17:28.964Z,98482.66
2022-11-17T21:20:33.771Z,98476.84
2022-11-17T21:23:38.123Z,98478.41
2022-11-17T21:26:41.635Z,98477.22
2022-11-17T21:29:44.832Z,98476.81
2022-11-17T21:32:48.342Z,98482.22
2022-11-17T21:35:51.174Z,98484.53
2022-11-17T21:38:55.650Z,98476.03
2022-11-17T21:42:00.376Z,98485.34
2022-11-17T21:45:03.540Z,98486.16
2022-11-17T21:48:08.132Z,98497.34
2022-11-17T21:51:23.387Z,98487.31
2022-11-17T21:54:26.145Z,98483.41
2022-11-17T21:57:29.432Z,98474.91
2022-11-17T22:00:32.029Z,98474.94
2022-11-17T22:03:35.951Z,98478.81
2022-11-17T22:06:39.220Z,98475.72
2022-11-17T22:09:42.409Z,98467.22
2022-11-17T22:12:45.277Z,98456.75
2022-11-17T22:15:48.354Z,98455.22
2022-11-17T22:18:51.170Z,98449.44
2022-11-17T22:21:55.416Z,98456.78
2022-11-17T22:25:11.438Z,98456.41
2022-11-17T22:28:22.420Z,98454.84
2022-11-17T22:31:25.962Z,98446.37
2022-11-17T22:34:29.079Z,98439.41
2022-11-17T22:37:32.118Z,98448.69
2022-11-17T22:40:35.648Z,98444.81
2022-11-17T22:43:38.469Z,98444.06
2022-11-17T22:46:43.249Z,98443.31
2022-11-17T22:49:46.713Z,98440.19
2022-11-17T22:52:49.979Z,98443.69
2022-11-17T22:55:52.887Z,98454.88
2022-11-17T22:58:59.610Z,98447.94
2022-11-17T23:02:02.973Z,98451.44
2022-11-17T23:05:06.291Z,98446.41
2022-11-17T23:08:10.044Z,98452.59
2022-11-17T23:11:35.964Z,98450.28
2022-11-17T23:14:36.290Z,98451.06
2022-11-17T23:17:39.459Z,98447.56
2022-11-17T23:20:42.279Z,98436.00
2022-11-17T23:23:46.318Z,98437.53
2022-11-17T23:26:49.179Z,98447.59
2022-11-17T23:29:52.229Z,98460.31
2022-11-17T23:32:58.001Z,98459.19
2022-11-17T23:36:06.978Z,98454.91
2022-11-17T23:39:09.930Z,98463.81
2022-11-17T23:42:13.110Z,98444.13
2022-11-17T23:45:16.260Z,98446.81
2022-11-17T23:48:20.402Z,98442.56
2022-11-17T23:51:25.648Z,98444.16
2022-11-17T23:54:28.749Z,98437.22
2022-11-17T23:57:32.850Z,98437.97
